sensor_id;sensor_type;location;lat;lon;timestamp;pressure;altitude;pressure_sealevel;temperature;humidity
5753;BME280;2901;42.140;24.760;2023-08-24T00:02:05;99362.94;;;27.32;58.28
5753;BME280;2901;42.140;24.760;2023-08-24T00:04:31;99372.69;;;27.21;59.00
5753;BME280;2901;42.140;24.760;2023-08-24T00:06:56;99366.16;;;27.14;59.06
5753;BME280;2901;42.140;24.760;2023-08-24T00:09:22;99371.00;;;27.09;59.61
5753;BME280;2901;42.140;24.760;2023-08-24T00:11:47;99361.44;;;27.06;59.77
5753;BME280;2901;42.140;24.760;2023-08-24T00:14:12;99369.66;;;27.03;60.00
5753;BME280;2901;42.140;24.760;2023-08-24T00:16:38;99358.34;;;26.89;60.31
5753;BME280;2901;42.140;24.760;2023-08-24T00:19:03;99372.25;;;26.92;60.99
5753;BME280;2901;42.140;24.760;2023-08-24T00:21:29;99369.94;;;26.88;61.49
5753;BME280;2901;42.140;24.760;2023-08-24T00:23:54;99369.84;;;26.89;61.20
5753;BME280;2901;42.140;24.760;2023-08-24T00:26:20;99363.19;;;26.84;61.27
5753;BME280;2901;42.140;24.760;2023-08-24T00:28:46;99366.25;;;26.77;61.55
5753;BME280;2901;42.140;24.760;2023-08-24T00:31:11;99366.16;;;26.79;62.01
5753;BME280;2901;42.140;24.760;2023-08-24T00:33:37;99354.03;;;26.75;61.87
5753;BME280;2901;42.140;24.760;2023-08-24T00:36:03;99359.59;;;26.72;62.35
5753;BME280;2901;42.140;24.760;2023-08-24T00:38:29;99370.13;;;26.73;62.25
5753;BME280;2901;42.140;24.760;2023-08-24T00:40:55;99366.47;;;26.74;61.94
5753;BME280;2901;42.140;24.760;2023-08-24T00:43:21;99359.34;;;26.75;61.77
5753;BME280;2901;42.140;24.760;2023-08-24T00:45:50;99348.88;;;26.73;62.00
5753;BME280;2901;42.140;24.760;2023-08-24T00:48:17;99355.13;;;26.72;62.24
5753;BME280;2901;42.140;24.760;2023-08-24T00:50:43;99354.28;;;26.72;62.35
5753;BME280;2901;42.140;24.760;2023-08-24T00:53:08;99355.19;;;26.60;61.70
5753;BME280;2901;42.140;24.760;2023-08-24T00:55:34;99362.03;;;26.51;62.10
5753;BME280;2901;42.140;24.760;2023-08-24T00:57:59;99364.19;;;26.46;61.80
5753;BME280;2901;42.140;24.760;2023-08-24T01:00:26;99369.50;;;26.46;61.56
5753;BME280;2901;42.140;24.760;2023-08-24T01:02:51;99361.22;;;26.38;61.83
5753;BME280;2901;42.140;24.760;2023-08-24T01:05:17;99349.44;;;26.42;61.77
5753;BME280;2901;42.140;24.760;2023-08-24T01:07:42;99353.78;;;26.43;61.93
5753;BME280;2901;42.140;24.760;2023-08-24T01:10:09;99355.38;;;26.46;61.88
5753;BME280;2901;42.140;24.760;2023-08-24T01:13:02;99357.31;;;26.44;62.30
5753;BME280;2901;42.140;24.760;2023-08-24T01:15:37;99368.47;;;26.36;62.03
5753;BME280;2901;42.140;24.760;2023-08-24T01:18:07;99365.53;;;26.28;62.11
5753;BME280;2901;42.140;24.760;2023-08-24T01:20:34;99359.72;;;26.23;62.20
5753;BME280;2901;42.140;24.760;2023-08-24T01:28:21;99340.84;;;26.02;63.47
5753;BME280;2901;42.140;24.760;2023-08-24T01:30:47;99347.94;;;26.02;63.15
5753;BME280;2901;42.140;24.760;2023-08-24T01:33:13;99355.63;;;25.94;63.68
5753;BME280;2901;42.140;24.760;2023-08-24T01:35:39;99351.16;;;25.94;63.97
5753;BME280;2901;42.140;24.760;2023-08-24T01:38:05;99349.06;;;25.87;64.69
5753;BME280;2901;42.140;24.760;2023-08-24T01:43:15;99344.19;;;25.80;64.86
5753;BME280;2901;42.140;24.760;2023-08-24T01:45:43;99342.50;;;25.79;65.30
5753;BME280;2901;42.140;24.760;2023-08-24T01:48:10;99341.63;;;25.79;65.33
5753;BME280;2901;42.140;24.760;2023-08-24T01:50:35;99332.81;;;25.78;65.47
5753;BME280;2901;42.140;24.760;2023-08-24T01:53:02;99338.34;;;25.75;65.41
5753;BME280;2901;42.140;24.760;2023-08-24T01:55:28;99346.94;;;25.79;65.77
5753;BME280;2901;42.140;24.760;2023-08-24T01:57:55;99337.53;;;25.75;66.11
5753;BME280;2901;42.140;24.760;2023-08-24T02:00:20;99341.84;;;25.76;66.19
5753;BME280;2901;42.140;24.760;2023-08-24T02:02:46;99328.72;;;25.74;66.31
5753;BME280;2901;42.140;24.760;2023-08-24T02:05:12;99337.63;;;25.73;66.43
5753;BME280;2901;42.140;24.760;2023-08-24T02:07:38;99330.63;;;25.72;66.57
5753;BME280;2901;42.140;24.760;2023-08-24T02:10:04;99335.91;;;25.72;66.56
5753;BME280;2901;42.140;24.760;2023-08-24T02:12:30;99334.47;;;25.68;66.76
5753;BME280;2901;42.140;24.760;2023-08-24T02:14:55;99332.63;;;25.69;66.91
5753;BME280;2901;42.140;24.760;2023-08-24T02:17:20;99337.13;;;25.68;66.85
5753;BME280;2901;42.140;24.760;2023-08-24T02:19:46;99338.16;;;25.66;67.05
5753;BME280;2901;42.140;24.760;2023-08-24T02:22:11;99338.50;;;25.61;67.12
5753;BME280;2901;42.140;24.760;2023-08-24T02:24:36;99328.69;;;25.49;68.03
5753;BME280;2901;42.140;24.760;2023-08-24T02:27:02;99329.78;;;25.47;68.22
5753;BME280;2901;42.140;24.760;2023-08-24T02:29:27;99329.91;;;25.45;68.51
5753;BME280;2901;42.140;24.760;2023-08-24T02:31:53;99329.56;;;25.37;68.83
5753;BME280;2901;42.140;24.760;2023-08-24T02:34:18;99332.13;;;25.39;68.80
5753;BME280;2901;42.140;24.760;2023-08-24T02:36:44;99342.31;;;25.32;69.60
5753;BME280;2901;42.140;24.760;2023-08-24T02:39:10;99346.22;;;25.26;69.77
5753;BME280;2901;42.140;24.760;2023-08-24T02:41:35;99347.78;;;25.16;70.29
5753;BME280;2901;42.140;24.760;2023-08-24T02:44:01;99347.69;;;25.05;71.05
5753;BME280;2901;42.140;24.760;2023-08-24T02:46:27;99353.59;;;24.96;71.45
5753;BME280;2901;42.140;24.760;2023-08-24T02:48:52;99356.22;;;24.84;72.36
5753;BME280;2901;42.140;24.760;2023-08-24T02:51:20;99338.06;;;24.77;72.85
5753;BME280;2901;42.140;24.760;2023-08-24T02:53:46;99342.63;;;24.75;73.23
5753;BME280;2901;42.140;24.760;2023-08-24T02:56:11;99320.13;;;24.56;73.13
5753;BME280;2901;42.140;24.760;2023-08-24T02:58:37;99336.88;;;24.56;73.34
5753;BME280;2901;42.140;24.760;2023-08-24T03:01:06;99337.91;;;24.54;73.93
5753;BME280;2901;42.140;24.760;2023-08-24T03:03:35;99331.00;;;24.51;73.45
5753;BME280;2901;42.140;24.760;2023-08-24T03:06:03;99336.88;;;24.56;73.51
5753;BME280;2901;42.140;24.760;2023-08-24T03:08:30;99332.81;;;24.51;73.05
5753;BME280;2901;42.140;24.760;2023-08-24T03:10:56;99339.91;;;24.50;72.69
5753;BME280;2901;42.140;24.760;2023-08-24T03:13:21;99342.22;;;24.42;73.18
5753;BME280;2901;42.140;24.760;2023-08-24T03:15:47;99341.47;;;24.40;73.52
5753;BME280;2901;42.140;24.760;2023-08-24T03:18:16;99346.84;;;24.39;73.65
5753;BME280;2901;42.140;24.760;2023-08-24T03:20:41;99348.44;;;24.41;73.36
5753;BME280;2901;42.140;24.760;2023-08-24T03:23:07;99348.38;;;24.43;73.74
5753;BME280;2901;42.140;24.760;2023-08-24T03:25:36;99351.88;;;24.43;73.17
5753;BME280;2901;42.140;24.760;2023-08-24T03:28:02;99350.38;;;24.39;73.12
5753;BME280;2901;42.140;24.760;2023-08-24T03:30:28;99353.09;;;24.38;73.45
5753;BME280;2901;42.140;24.760;2023-08-24T03:32:53;99350.56;;;24.36;72.94
5753;BME280;2901;42.140;24.760;2023-08-24T03:35:18;99355.84;;;24.36;73.01
5753;BME280;2901;42.140;24.760;2023-08-24T03:37:44;99353.50;;;24.32;72.90
5753;BME280;2901;42.140;24.760;2023-08-24T03:40:09;99356.06;;;24.33;73.13
5753;BME280;2901;42.140;24.760;2023-08-24T03:42:35;99360.75;;;24.42;72.57
5753;BME280;2901;42.140;24.760;2023-08-24T03:45:00;99366.69;;;24.46;72.76
5753;BME280;2901;42.140;24.760;2023-08-24T03:47:25;99378.25;;;24.57;71.65
5753;BME280;2901;42.140;24.760;2023-08-24T03:49:51;99379.97;;;24.58;71.45
5753;BME280;2901;42.140;24.760;2023-08-24T03:52:16;99376.19;;;24.62;71.17
5753;BME280;2901;42.140;24.760;2023-08-24T03:54:42;99379.28;;;24.69;71.10
5753;BME280;2901;42.140;24.760;2023-08-24T03:57:07;99374.41;;;24.75;70.70
5753;BME280;2901;42.140;24.760;2023-08-24T03:59:33;99370.44;;;24.83;69.74
5753;BME280;2901;42.140;24.760;2023-08-24T04:01:58;99377.59;;;24.80;69.90
5753;BME280;2901;42.140;24.760;2023-08-24T04:04:27;99370.06;;;24.74;70.17
5753;BME280;2901;42.140;24.760;2023-08-24T04:06:53;99365.91;;;24.70;69.98
5753;BME280;2901;42.140;24.760;2023-08-24T04:09:18;99370.63;;;24.79;69.82
5753;BME280;2901;42.140;24.760;2023-08-24T04:11:43;99378.19;;;24.86;69.83
5753;BME280;2901;42.140;24.760;2023-08-24T04:14:09;99375.97;;;24.92;70.20
5753;BME280;2901;42.140;24.760;2023-08-24T04:16:34;99367.63;;;24.98;69.66
5753;BME280;2901;42.140;24.760;2023-08-24T04:19:00;99375.66;;;24.97;70.00
5753;BME280;2901;42.140;24.760;2023-08-24T04:21:25;99371.13;;;24.99;70.09
5753;BME280;2901;42.140;24.760;2023-08-24T04:23:51;99372.06;;;24.98;69.85
5753;BME280;2901;42.140;24.760;2023-08-24T04:26:16;99371.63;;;25.04;69.49
5753;BME280;2901;42.140;24.760;2023-08-24T04:28:41;99376.00;;;25.05;69.54
5753;BME280;2901;42.140;24.760;2023-08-24T04:31:08;99370.72;;;25.17;69.02
5753;BME280;2901;42.140;24.760;2023-08-24T04:33:33;99384.31;;;25.25;68.38
5753;BME280;2901;42.140;24.760;2023-08-24T04:35:59;99377.50;;;25.34;67.52
5753;BME280;2901;42.140;24.760;2023-08-24T04:38:24;99385.19;;;25.51;67.07
5753;BME280;2901;42.140;24.760;2023-08-24T04:40:51;99392.28;;;25.63;66.53
5753;BME280;2901;42.140;24.760;2023-08-24T04:43:18;99381.66;;;25.76;65.94
5753;BME280;2901;42.140;24.760;2023-08-24T04:45:51;99378.16;;;25.88;65.34
5753;BME280;2901;42.140;24.760;2023-08-24T04:48:18;99395.94;;;25.99;65.35
5753;BME280;2901;42.140;24.760;2023-08-24T04:50:45;99397.84;;;26.09;64.27
5753;BME280;2901;42.140;24.760;2023-08-24T04:53:15;99392.47;;;25.98;64.20
5753;BME280;2901;42.140;24.760;2023-08-24T04:55:41;99407.88;;;25.80;65.12
5753;BME280;2901;42.140;24.760;2023-08-24T04:58:10;99401.06;;;25.76;65.78
5753;BME280;2901;42.140;24.760;2023-08-24T05:00:37;99412.56;;;25.64;66.76
5753;BME280;2901;42.140;24.760;2023-08-24T05:03:05;99406.59;;;25.61;67.33
5753;BME280;2901;42.140;24.760;2023-08-24T05:05:31;99407.25;;;25.64;67.79
5753;BME280;2901;42.140;24.760;2023-08-24T05:07:57;99403.09;;;25.73;67.67
5753;BME280;2901;42.140;24.760;2023-08-24T05:10:24;99393.53;;;25.83;67.93
5753;BME280;2901;42.140;24.760;2023-08-24T05:12:49;99398.09;;;25.94;66.57
5753;BME280;2901;42.140;24.760;2023-08-24T05:15:14;99398.94;;;25.94;66.80
5753;BME280;2901;42.140;24.760;2023-08-24T05:17:40;99396.78;;;25.99;67.03
5753;BME280;2901;42.140;24.760;2023-08-24T05:20:07;99404.50;;;26.15;66.86
5753;BME280;2901;42.140;24.760;2023-08-24T05:22:33;99391.34;;;26.26;65.61
5753;BME280;2901;42.140;24.760;2023-08-24T05:24:58;99399.66;;;26.45;65.99
5753;BME280;2901;42.140;24.760;2023-08-24T05:27:24;99401.72;;;26.65;64.85
5753;BME280;2901;42.140;24.760;2023-08-24T05:29:49;99397.41;;;26.75;63.92
5753;BME280;2901;42.140;24.760;2023-08-24T05:32:14;99411.81;;;26.97;62.23
5753;BME280;2901;42.140;24.760;2023-08-24T05:34:40;99400.81;;;27.01;62.29
5753;BME280;2901;42.140;24.760;2023-08-24T05:37:05;99411.81;;;27.08;62.41
5753;BME280;2901;42.140;24.760;2023-08-24T05:39:31;99421.03;;;27.15;62.54
5753;BME280;2901;42.140;24.760;2023-08-24T05:41:56;99411.88;;;27.30;62.01
5753;BME280;2901;42.140;24.760;2023-08-24T05:44:21;99407.50;;;27.53;61.23
5753;BME280;2901;42.140;24.760;2023-08-24T05:46:47;99414.38;;;27.66;60.53
5753;BME280;2901;42.140;24.760;2023-08-24T05:49:13;99397.22;;;27.70;60.24
5753;BME280;2901;42.140;24.760;2023-08-24T05:51:39;99395.31;;;27.72;59.67
5753;BME280;2901;42.140;24.760;2023-08-24T05:54:04;99395.41;;;27.71;59.30
5753;BME280;2901;42.140;24.760;2023-08-24T05:56:30;99392.88;;;27.69;59.44
5753;BME280;2901;42.140;24.760;2023-08-24T05:58:57;99399.75;;;27.61;59.79
5753;BME280;2901;42.140;24.760;2023-08-24T06:01:23;99399.16;;;27.57;58.85
5753;BME280;2901;42.140;24.760;2023-08-24T06:03:49;99400.38;;;27.64;58.06
5753;BME280;2901;42.140;24.760;2023-08-24T06:06:14;99409.06;;;27.66;58.98
5753;BME280;2901;42.140;24.760;2023-08-24T06:08:40;99404.63;;;27.78;57.81
5753;BME280;2901;42.140;24.760;2023-08-24T06:11:05;99386.81;;;27.90;57.40
5753;BME280;2901;42.140;24.760;2023-08-24T06:13:30;99388.28;;;27.94;57.16
5753;BME280;2901;42.140;24.760;2023-08-24T06:15:56;99403.53;;;27.92;56.15
5753;BME280;2901;42.140;24.760;2023-08-24T06:18:21;99399.41;;;27.99;56.68
5753;BME280;2901;42.140;24.760;2023-08-24T06:20:47;99391.19;;;28.02;55.91
5753;BME280;2901;42.140;24.760;2023-08-24T06:23:15;99395.19;;;28.18;55.07
5753;BME280;2901;42.140;24.760;2023-08-24T06:25:41;99397.97;;;28.28;55.75
5753;BME280;2901;42.140;24.760;2023-08-24T06:28:06;99397.81;;;28.41;54.23
5753;BME280;2901;42.140;24.760;2023-08-24T06:30:37;99400.56;;;28.39;54.02
5753;BME280;2901;42.140;24.760;2023-08-24T06:33:04;99405.56;;;28.32;54.42
5753;BME280;2901;42.140;24.760;2023-08-24T06:35:29;99408.81;;;28.36;54.71
5753;BME280;2901;42.140;24.760;2023-08-24T06:37:54;99416.47;;;28.29;55.05
5753;BME280;2901;42.140;24.760;2023-08-24T06:40:20;99409.06;;;28.00;55.52
5753;BME280;2901;42.140;24.760;2023-08-24T06:42:45;99417.09;;;27.89;56.87
5753;BME280;2901;42.140;24.760;2023-08-24T06:45:11;99416.84;;;27.69;57.63
5753;BME280;2901;42.140;24.760;2023-08-24T06:47:37;99427.94;;;27.63;57.58
5753;BME280;2901;42.140;24.760;2023-08-24T06:50:03;99428.19;;;27.49;57.63
5753;BME280;2901;42.140;24.760;2023-08-24T06:52:28;99451.63;;;27.55;58.71
5753;BME280;2901;42.140;24.760;2023-08-24T06:54:54;99453.78;;;27.50;58.51
5753;BME280;2901;42.140;24.760;2023-08-24T06:57:21;99468.53;;;27.43;59.38
5753;BME280;2901;42.140;24.760;2023-08-24T06:59:47;99482.78;;;27.42;59.96
5753;BME280;2901;42.140;24.760;2023-08-24T07:02:12;99484.53;;;27.30;67.78
5753;BME280;2901;42.140;24.760;2023-08-24T07:04:38;99474.13;;;26.93;72.23
5753;BME280;2901;42.140;24.760;2023-08-24T07:07:06;99471.47;;;26.56;76.09
5753;BME280;2901;42.140;24.760;2023-08-24T07:09:31;99452.13;;;26.18;82.30
5753;BME280;2901;42.140;24.760;2023-08-24T07:11:56;99427.19;;;25.57;85.88
5753;BME280;2901;42.140;24.760;2023-08-24T07:14:22;99425.56;;;25.03;89.64
5753;BME280;2901;42.140;24.760;2023-08-24T07:16:47;99415.06;;;24.62;90.46
5753;BME280;2901;42.140;24.760;2023-08-24T07:19:13;99435.84;;;24.68;93.22
5753;BME280;2901;42.140;24.760;2023-08-24T07:21:38;99406.28;;;24.74;95.24
5753;BME280;2901;42.140;24.760;2023-08-24T07:24:04;99409.78;;;24.89;95.70
5753;BME280;2901;42.140;24.760;2023-08-24T07:26:29;99407.03;;;25.03;91.98
5753;BME280;2901;42.140;24.760;2023-08-24T07:28:55;99407.81;;;25.30;93.93
5753;BME280;2901;42.140;24.760;2023-08-24T07:31:21;99408.91;;;25.65;93.17
5753;BME280;2901;42.140;24.760;2023-08-24T07:33:47;99410.94;;;25.87;89.28
5753;BME280;2901;42.140;24.760;2023-08-24T07:36:13;99413.25;;;26.17;90.81
5753;BME280;2901;42.140;24.760;2023-08-24T07:38:38;99420.28;;;26.42;88.75
5753;BME280;2901;42.140;24.760;2023-08-24T07:41:04;99421.66;;;26.71;88.63
5753;BME280;2901;42.140;24.760;2023-08-24T07:43:29;99428.69;;;26.96;85.92
5753;BME280;2901;42.140;24.760;2023-08-24T07:45:55;99427.19;;;27.15;87.81
5753;BME280;2901;42.140;24.760;2023-08-24T07:48:20;99438.03;;;27.36;89.59
5753;BME280;2901;42.140;24.760;2023-08-24T07:50:46;99433.63;;;27.59;85.96
5753;BME280;2901;42.140;24.760;2023-08-24T07:53:11;99431.00;;;27.81;84.01
5753;BME280;2901;42.140;24.760;2023-08-24T07:55:36;99423.03;;;27.92;84.90
5753;BME280;2901;42.140;24.760;2023-08-24T07:58:02;99435.25;;;28.28;87.01
5753;BME280;2901;42.140;24.760;2023-08-24T08:00:29;99439.09;;;28.46;83.46
5753;BME280;2901;42.140;24.760;2023-08-24T08:02:54;99432.03;;;28.56;82.85
5753;BME280;2901;42.140;24.760;2023-08-24T08:05:20;99421.00;;;28.61;80.03
5753;BME280;2901;42.140;24.760;2023-08-24T08:07:46;99427.78;;;28.65;78.79
5753;BME280;2901;42.140;24.760;2023-08-24T08:10:11;99432.34;;;28.85;77.14
5753;BME280;2901;42.140;24.760;2023-08-24T08:12:36;99427.78;;;29.08;77.20
5753;BME280;2901;42.140;24.760;2023-08-24T08:15:02;99423.31;;;29.29;74.57
5753;BME280;2901;42.140;24.760;2023-08-24T08:17:28;99415.22;;;29.30;71.29
5753;BME280;2901;42.140;24.760;2023-08-24T08:19:55;99419.22;;;29.46;70.59
5753;BME280;2901;42.140;24.760;2023-08-24T08:22:21;99422.19;;;29.73;70.19
5753;BME280;2901;42.140;24.760;2023-08-24T08:24:46;99422.09;;;30.05;66.00
5753;BME280;2901;42.140;24.760;2023-08-24T08:27:12;99417.44;;;30.07;64.64
5753;BME280;2901;42.140;24.760;2023-08-24T08:29:37;99420.63;;;30.31;63.99
5753;BME280;2901;42.140;24.760;2023-08-24T08:32:02;99412.56;;;30.52;63.40
5753;BME280;2901;42.140;24.760;2023-08-24T08:34:29;99416.09;;;30.71;60.81
5753;BME280;2901;42.140;24.760;2023-08-24T08:36:55;99414.69;;;30.86;58.64
5753;BME280;2901;42.140;24.760;2023-08-24T08:39:20;99407.41;;;31.08;57.39
5753;BME280;2901;42.140;24.760;2023-08-24T08:41:46;99400.31;;;31.35;58.39
5753;BME280;2901;42.140;24.760;2023-08-24T08:44:14;99406.47;;;31.65;54.10
5753;BME280;2901;42.140;24.760;2023-08-24T08:46:41;99396.44;;;31.76;56.45
5753;BME280;2901;42.140;24.760;2023-08-24T08:49:08;99394.56;;;31.86;53.02
5753;BME280;2901;42.140;24.760;2023-08-24T08:51:36;99392.25;;;31.64;52.44
5753;BME280;2901;42.140;24.760;2023-08-24T08:54:02;99398.09;;;31.31;51.04
5753;BME280;2901;42.140;24.760;2023-08-24T08:56:29;99397.53;;;31.27;53.75
5753;BME280;2901;42.140;24.760;2023-08-24T08:58:56;99384.56;;;31.13;54.43
5753;BME280;2901;42.140;24.760;2023-08-24T09:01:24;99388.50;;;31.19;56.06
5753;BME280;2901;42.140;24.760;2023-08-24T09:03:51;99392.00;;;31.48;55.83
5753;BME280;2901;42.140;24.760;2023-08-24T09:06:16;99389.44;;;31.56;56.05
5753;BME280;2901;42.140;24.760;2023-08-24T09:08:42;99376.06;;;31.56;57.13
5753;BME280;2901;42.140;24.760;2023-08-24T09:11:09;99390.09;;;31.77;55.89
5753;BME280;2901;42.140;24.760;2023-08-24T09:13:34;99385.69;;;31.86;53.97
5753;BME280;2901;42.140;24.760;2023-08-24T09:16:05;99378.75;;;31.93;55.73
5753;BME280;2901;42.140;24.760;2023-08-24T09:18:38;99381.06;;;32.15;55.76
5753;BME280;2901;42.140;24.760;2023-08-24T09:21:11;99379.16;;;32.25;55.17
5753;BME280;2901;42.140;24.760;2023-08-24T09:23:54;99379.56;;;32.48;55.60
5753;BME280;2901;42.140;24.760;2023-08-24T09:26:30;99374.56;;;32.63;56.41
5753;BME280;2901;42.140;24.760;2023-08-24T09:28:56;99369.97;;;32.73;56.65
5753;BME280;2901;42.140;24.760;2023-08-24T09:31:43;99372.72;;;32.99;56.65
5753;BME280;2901;42.140;24.760;2023-08-24T09:34:11;99370.50;;;32.94;49.57
5753;BME280;2901;42.140;24.760;2023-08-24T09:36:37;99366.91;;;32.85;49.42
5753;BME280;2901;42.140;24.760;2023-08-24T09:39:04;99369.53;;;33.13;49.92
5753;BME280;2901;42.140;24.760;2023-08-24T09:44:04;99365.59;;;33.33;44.62
5753;BME280;2901;42.140;24.760;2023-08-24T09:46:30;99362.94;;;33.33;44.91
5753;BME280;2901;42.140;24.760;2023-08-24T09:48:55;99370.69;;;33.36;44.16
5753;BME280;2901;42.140;24.760;2023-08-24T09:51:25;99363.78;;;33.33;45.12
5753;BME280;2901;42.140;24.760;2023-08-24T09:53:51;99356.53;;;33.26;43.66
5753;BME280;2901;42.140;24.760;2023-08-24T09:56:18;99361.81;;;33.44;44.18
5753;BME280;2901;42.140;24.760;2023-08-24T09:58:47;99359.19;;;33.52;45.90
5753;BME280;2901;42.140;24.760;2023-08-24T10:01:15;99362.66;;;33.44;47.77
5753;BME280;2901;42.140;24.760;2023-08-24T10:03:42;99357.56;;;33.33;46.82
5753;BME280;2901;42.140;24.760;2023-08-24T10:06:10;99359.63;;;33.39;47.38
5753;BME280;2901;42.140;24.760;2023-08-24T10:08:42;99355.94;;;33.40;48.17
5753;BME280;2901;42.140;24.760;2023-08-24T10:11:09;99353.22;;;33.32;50.66
5753;BME280;2901;42.140;24.760;2023-08-24T10:16:12;99349.38;;;33.17;51.59
5753;BME280;2901;42.140;24.760;2023-08-24T10:18:39;99348.19;;;33.37;50.52
5753;BME280;2901;42.140;24.760;2023-08-24T10:21:05;99339.88;;;33.74;48.62
5753;BME280;2901;42.140;24.760;2023-08-24T10:23:34;99333.19;;;33.78;48.35
5753;BME280;2901;42.140;24.760;2023-08-24T10:26:06;99330.97;;;33.73;47.16
5753;BME280;2901;42.140;24.760;2023-08-24T10:28:32;99332.41;;;33.94;45.41
5753;BME280;2901;42.140;24.760;2023-08-24T10:30:59;99326.03;;;34.03;40.51
5753;BME280;2901;42.140;24.760;2023-08-24T10:33:26;99314.53;;;34.18;41.99
5753;BME280;2901;42.140;24.760;2023-08-24T10:35:53;99309.00;;;34.36;41.56
5753;BME280;2901;42.140;24.760;2023-08-24T10:38:41;99306.66;;;34.33;43.10
5753;BME280;2901;42.140;24.760;2023-08-24T10:41:10;99298.78;;;34.31;42.17
5753;BME280;2901;42.140;24.760;2023-08-24T10:43:40;99304.19;;;34.06;39.50
5753;BME280;2901;42.140;24.760;2023-08-24T10:46:13;99292.31;;;33.66;41.11
5753;BME280;2901;42.140;24.760;2023-08-24T10:53:46;99286.81;;;33.42;42.97
5753;BME280;2901;42.140;24.760;2023-08-24T10:56:13;99288.56;;;33.25;44.90
5753;BME280;2901;42.140;24.760;2023-08-24T10:58:39;99283.34;;;33.24;44.80
5753;BME280;2901;42.140;24.760;2023-08-24T11:01:04;99278.75;;;33.16;43.53
5753;BME280;2901;42.140;24.760;2023-08-24T11:03:33;99279.16;;;33.04;43.77
5753;BME280;2901;42.140;24.760;2023-08-24T11:05:59;99278.31;;;33.03;44.07
5753;BME280;2901;42.140;24.760;2023-08-24T11:08:44;99270.75;;;32.99;45.07
5753;BME280;2901;42.140;24.760;2023-08-24T11:11:22;99260.66;;;32.93;45.84
5753;BME280;2901;42.140;24.760;2023-08-24T11:16:41;99260.03;;;32.81;46.04
5753;BME280;2901;42.140;24.760;2023-08-24T11:19:08;99260.00;;;32.73;47.93
5753;BME280;2901;42.140;24.760;2023-08-24T11:21:35;99249.84;;;32.84;48.02
5753;BME280;2901;42.140;24.760;2023-08-24T11:24:02;99245.81;;;33.06;46.04
5753;BME280;2901;42.140;24.760;2023-08-24T11:26:29;99239.53;;;33.15;45.99
5753;BME280;2901;42.140;24.760;2023-08-24T11:28:54;99234.75;;;33.35;45.10
5753;BME280;2901;42.140;24.760;2023-08-24T11:31:22;99225.13;;;33.58;42.44
5753;BME280;2901;42.140;24.760;2023-08-24T11:33:48;99213.63;;;33.82;42.38
5753;BME280;2901;42.140;24.760;2023-08-24T11:36:13;99215.50;;;34.06;38.99
5753;BME280;2901;42.140;24.760;2023-08-24T11:38:40;99196.75;;;34.14;38.83
5753;BME280;2901;42.140;24.760;2023-08-24T11:41:13;99192.38;;;34.29;38.17
5753;BME280;2901;42.140;24.760;2023-08-24T11:43:38;99190.00;;;34.50;37.77
5753;BME280;2901;42.140;24.760;2023-08-24T11:46:04;99184.66;;;34.74;37.93
5753;BME280;2901;42.140;24.760;2023-08-24T11:48:29;99183.47;;;34.77;36.05
5753;BME280;2901;42.140;24.760;2023-08-24T11:50:57;99187.63;;;34.87;35.01
5753;BME280;2901;42.140;24.760;2023-08-24T11:53:23;99167.59;;;34.90;35.49
5753;BME280;2901;42.140;24.760;2023-08-24T11:55:53;99175.13;;;35.03;35.64
5753;BME280;2901;42.140;24.760;2023-08-24T11:58:19;99164.69;;;35.16;36.29
5753;BME280;2901;42.140;24.760;2023-08-24T12:00:45;99172.53;;;35.33;34.25
5753;BME280;2901;42.140;24.760;2023-08-24T12:03:12;99165.59;;;35.39;34.63
5753;BME280;2901;42.140;24.760;2023-08-24T12:05:37;99165.22;;;35.50;33.85
5753;BME280;2901;42.140;24.760;2023-08-24T12:08:03;99174.69;;;35.38;33.50
5753;BME280;2901;42.140;24.760;2023-08-24T12:10:29;99167.59;;;35.37;33.52
5753;BME280;2901;42.140;24.760;2023-08-24T12:13:05;99169.56;;;35.51;32.64
5753;BME280;2901;42.140;24.760;2023-08-24T12:15:33;99159.75;;;35.58;33.44
5753;BME280;2901;42.140;24.760;2023-08-24T12:18:07;99159.31;;;35.77;33.55
5753;BME280;2901;42.140;24.760;2023-08-24T12:20:32;99147.69;;;36.00;32.76
5753;BME280;2901;42.140;24.760;2023-08-24T12:22:58;99149.03;;;36.26;33.03
5753;BME280;2901;42.140;24.760;2023-08-24T12:25:24;99136.13;;;36.22;32.75
5753;BME280;2901;42.140;24.760;2023-08-24T12:27:51;99129.66;;;36.08;33.00
5753;BME280;2901;42.140;24.760;2023-08-24T12:30:18;99122.31;;;36.17;32.67
5753;BME280;2901;42.140;24.760;2023-08-24T12:32:45;99119.72;;;36.23;32.24
5753;BME280;2901;42.140;24.760;2023-08-24T12:35:11;99110.03;;;36.52;32.05
5753;BME280;2901;42.140;24.760;2023-08-24T12:37:37;99124.59;;;36.65;31.10
5753;BME280;2901;42.140;24.760;2023-08-24T12:40:03;99122.16;;;36.70;31.47
5753;BME280;2901;42.140;24.760;2023-08-24T12:42:32;99112.56;;;36.82;31.33
5753;BME280;2901;42.140;24.760;2023-08-24T12:44:57;99117.88;;;36.90;31.57
5753;BME280;2901;42.140;24.760;2023-08-24T12:47:23;99112.19;;;36.85;30.91
5753;BME280;2901;42.140;24.760;2023-08-24T12:49:48;99112.28;;;37.21;30.25
5753;BME280;2901;42.140;24.760;2023-08-24T12:52:16;99125.38;;;37.39;30.43
5753;BME280;2901;42.140;24.760;2023-08-24T12:54:42;99117.72;;;37.57;30.27
5753;BME280;2901;42.140;24.760;2023-08-24T12:57:07;99125.44;;;37.81;30.02
5753;BME280;2901;42.140;24.760;2023-08-24T12:59:33;99130.38;;;37.92;28.35
5753;BME280;2901;42.140;24.760;2023-08-24T13:01:58;99126.25;;;37.97;28.58
5753;BME280;2901;42.140;24.760;2023-08-24T13:04:24;99115.28;;;38.05;28.55
5753;BME280;2901;42.140;24.760;2023-08-24T13:06:49;99111.69;;;38.19;27.43
5753;BME280;2901;42.140;24.760;2023-08-24T13:09:14;99119.91;;;38.53;27.80
5753;BME280;2901;42.140;24.760;2023-08-24T13:11:40;99112.81;;;38.86;27.58
5753;BME280;2901;42.140;24.760;2023-08-24T13:14:05;99105.34;;;38.61;27.07
5753;BME280;2901;42.140;24.760;2023-08-24T13:16:31;99096.03;;;38.70;27.67
5753;BME280;2901;42.140;24.760;2023-08-24T13:18:56;99093.56;;;38.75;27.49
5753;BME280;2901;42.140;24.760;2023-08-24T13:21:22;99088.47;;;38.93;28.05
5753;BME280;2901;42.140;24.760;2023-08-24T13:23:47;99094.78;;;39.07;26.35
5753;BME280;2901;42.140;24.760;2023-08-24T13:26:20;99097.34;;;39.21;26.75
5753;BME280;2901;42.140;24.760;2023-08-24T13:28:49;99090.63;;;39.04;26.86